createdAt,value
2022-12-11T00:00:04.947Z,-1.30
2022-12-11T00:02:31.527Z,-1.30
2022-12-11T00:04:58.018Z,-1.30
2022-12-11T00:07:24.622Z,-1.30
2022-12-11T00:09:51.068Z,-1.20
2022-12-11T00:12:17.533Z,-1.20
2022-12-11T00:14:44.067Z,-1.30
2022-12-11T00:17:10.559Z,-1.30
2022-12-11T00:19:37.069Z,-1.20
2022-12-11T00:22:03.558Z,-1.20
2022-12-11T00:24:30.086Z,-1.10
2022-12-11T00:26:56.796Z,-1.20
2022-12-11T00:29:23.264Z,-1.20
2022-12-11T00:31:49.776Z,-1.10
2022-12-11T00:34:16.393Z,-1.10
2022-12-11T00:36:42.920Z,-1.10
2022-12-11T00:39:09.479Z,-1.10
2022-12-11T00:41:35.954Z,-1.10
2022-12-11T00:44:02.473Z,-1.10
2022-12-11T00:46:29.260Z,-1.00
2022-12-11T00:48:55.727Z,-1.00
2022-12-11T00:51:22.235Z,-1.10
2022-12-11T00:53:48.757Z,-1.10
2022-12-11T00:56:17.119Z,-1.00
2022-12-11T00:58:43.669Z,-1.10
2022-12-11T01:01:15.369Z,-1.00
2022-12-11T01:03:41.870Z,-1.00
2022-12-11T01:06:08.488Z,-0.90
2022-12-11T01:08:38.481Z,-0.90
2022-12-11T01:11:06.567Z,-0.90
2022-12-11T01:13:33.641Z,-0.90
2022-12-11T01:16:00.079Z,-0.80
2022-12-11T01:18:26.659Z,-0.90
2022-12-11T01:20:53.257Z,-0.90
2022-12-11T01:23:19.741Z,-0.80
2022-12-11T01:25:46.344Z,-0.80
2022-12-11T01:28:12.796Z,-0.80
2022-12-11T01:30:41.094Z,-0.80
2022-12-11T01:33:07.543Z,-0.70
2022-12-11T01:35:34.177Z,-0.70
2022-12-11T01:38:00.734Z,-0.80
2022-12-11T01:40:27.168Z,-0.70
2022-12-11T01:42:53.700Z,-0.70
2022-12-11T01:45:27.254Z,-0.70
2022-12-11T01:48:04.721Z,-0.80
2022-12-11T01:50:33.858Z,-0.80
2022-12-11T01:53:00.816Z,-0.80
2022-12-11T01:55:27.427Z,-0.80
2022-12-11T01:57:54.248Z,-0.80
2022-12-11T02:00:21.661Z,-0.70
2022-12-11T02:02:48.254Z,-0.80
2022-12-11T02:05:14.970Z,-0.90
2022-12-11T02:08:08.500Z,-1.10
2022-12-11T02:10:58.276Z,-1.00
2022-12-11T02:13:34.887Z,-0.90
2022-12-11T02:16:17.325Z,-0.90
2022-12-11T02:19:00.316Z,-0.90
2022-12-11T02:21:30.489Z,-0.90
2022-12-11T02:24:12.226Z,-0.90
2022-12-11T02:26:57.779Z,-0.90
2022-12-11T02:29:30.419Z,-0.90
2022-12-11T02:32:03.056Z,-0.80
2022-12-11T02:34:33.783Z,-0.80
2022-12-11T02:37:05.672Z,-0.80
2022-12-11T02:39:33.466Z,-0.70
2022-12-11T02:42:00.430Z,-0.80
2022-12-11T02:44:29.311Z,-0.80
2022-12-11T02:46:56.030Z,-0.70
2022-12-11T02:49:23.134Z,-0.80
2022-12-11T02:51:50.995Z,-0.80
2022-12-11T02:54:20.679Z,-0.80
2022-12-11T02:56:52.435Z,-0.80
2022-12-11T02:59:22.426Z,-0.80
2022-12-11T03:01:49.060Z,-0.70
2022-12-11T03:04:15.766Z,-0.70
2022-12-11T03:06:53.589Z,-0.70
2022-12-11T03:09:20.408Z,-0.70
2022-12-11T03:11:46.839Z,-0.80
2022-12-11T03:14:14.236Z,-0.80
2022-12-11T03:16:59.876Z,-0.70
2022-12-11T03:19:37.032Z,-0.70
2022-12-11T03:22:08.274Z,-0.70
2022-12-11T03:24:38.902Z,-0.70
2022-12-11T03:27:31.870Z,-0.70
2022-12-11T03:30:00.407Z,-0.80
2022-12-11T03:32:29.521Z,-0.80
2022-12-11T03:34:59.676Z,-0.80
2022-12-11T03:37:28.529Z,-0.80
2022-12-11T03:39:56.761Z,-0.80
2022-12-11T03:42:24.200Z,-0.70
2022-12-11T03:44:51.947Z,-0.70
2022-12-11T03:47:20.391Z,-0.70
2022-12-11T03:49:47.974Z,-0.70
2022-12-11T03:52:15.327Z,-0.70
2022-12-11T03:54:43.137Z,-0.70
2022-12-11T03:57:12.016Z,-0.70
2022-12-11T03:59:38.554Z,-0.80
2022-12-11T04:02:10.910Z,-0.80
2022-12-11T04:04:38.504Z,-0.80
2022-12-11T04:07:05.045Z,-0.80
2022-12-11T04:09:31.527Z,-0.70
2022-12-11T04:11:58.149Z,-0.70
2022-12-11T04:14:43.413Z,-0.70
2022-12-11T04:17:10.252Z,-0.60
2022-12-11T04:19:55.335Z,-0.60
2022-12-11T04:22:40.252Z,-0.60
2022-12-11T04:25:07.508Z,-0.50
2022-12-11T04:27:49.025Z,-0.50
2022-12-11T04:30:17.088Z,-0.50
2022-12-11T04:32:43.637Z,-0.50
2022-12-11T04:35:10.577Z,-0.60
2022-12-11T04:37:37.267Z,-0.60
2022-12-11T04:40:07.340Z,-0.60
2022-12-11T04:42:33.866Z,-0.60
2022-12-11T04:45:00.310Z,-0.70
2022-12-11T04:47:27.460Z,-0.70
2022-12-11T04:49:53.997Z,-0.70
2022-12-11T04:52:20.663Z,-0.70
2022-12-11T04:54:47.211Z,-0.80
2022-12-11T04:57:13.692Z,-0.80
2022-12-11T04:59:40.185Z,-0.70
2022-12-11T05:02:06.695Z,-0.80
2022-12-11T05:04:34.203Z,-0.80
2022-12-11T05:07:01.120Z,-0.90
2022-12-11T05:09:27.996Z,-0.90
2022-12-11T05:11:54.561Z,-1.00
2022-12-11T05:14:21.373Z,-1.00
2022-12-11T05:16:47.909Z,-0.90
2022-12-11T05:19:14.483Z,-0.80
2022-12-11T05:21:40.957Z,-0.80
2022-12-11T05:24:07.595Z,-0.80
2022-12-11T05:26:34.152Z,-0.70
2022-12-11T05:29:00.608Z,-0.80
2022-12-11T05:31:27.271Z,-0.80
2022-12-11T05:33:53.786Z,-0.80
2022-12-11T05:36:25.361Z,-0.70
2022-12-11T05:38:52.303Z,-0.70
2022-12-11T05:41:19.988Z,-0.70
2022-12-11T05:43:46.777Z,-0.70
2022-12-11T05:46:18.516Z,-0.60
2022-12-11T05:48:46.084Z,-0.60
2022-12-11T05:51:13.123Z,-0.60
2022-12-11T05:53:40.254Z,-0.60
2022-12-11T05:56:08.116Z,-0.60
2022-12-11T05:58:35.051Z,-0.60
2022-12-11T06:01:01.860Z,-0.70
2022-12-11T06:03:28.409Z,-0.60
2022-12-11T06:05:54.901Z,-0.70
2022-12-11T06:08:21.505Z,-0.80
2022-12-11T06:10:48.698Z,-0.70
2022-12-11T06:13:15.790Z,-0.70
2022-12-11T06:15:42.711Z,-0.60
2022-12-11T06:18:09.323Z,-0.70
2022-12-11T06:20:36.353Z,-0.70
2022-12-11T06:23:02.798Z,-0.60
2022-12-11T06:25:29.679Z,-0.70
2022-12-11T06:27:56.427Z,-0.70
2022-12-11T06:30:23.404Z,-0.70
2022-12-11T06:33:05.143Z,-0.70
2022-12-11T06:35:31.761Z,-0.70
2022-12-11T06:37:58.973Z,-0.70
2022-12-11T06:40:25.483Z,-0.70
2022-12-11T06:42:52.043Z,-0.70
2022-12-11T06:45:18.491Z,-0.70
2022-12-11T06:47:44.922Z,-0.70
2022-12-11T06:50:11.560Z,-0.80
2022-12-11T06:52:38.041Z,-0.70
2022-12-11T06:55:04.824Z,-0.80
2022-12-11T06:57:31.312Z,-0.70
2022-12-11T06:59:57.787Z,-0.70
2022-12-11T07:02:24.364Z,-0.60
2022-12-11T07:04:55.116Z,-0.60
2022-12-11T07:07:21.909Z,-0.70
2022-12-11T07:09:48.452Z,-0.60
2022-12-11T07:12:16.462Z,-0.60
2022-12-11T07:14:42.965Z,-0.60
2022-12-11T07:17:09.538Z,-0.50
2022-12-11T07:19:36.100Z,-0.60
2022-12-11T07:22:02.563Z,-0.60
2022-12-11T07:24:29.125Z,-0.60
2022-12-11T07:26:55.580Z,-0.60
2022-12-11T07:29:22.128Z,-0.60
2022-12-11T07:31:48.611Z,-0.70
2022-12-11T07:34:15.175Z,-0.60
2022-12-11T07:36:41.723Z,-0.70
2022-12-11T07:39:09.054Z,-0.70
2022-12-11T07:41:35.649Z,-0.60
2022-12-11T07:44:02.608Z,-0.60
2022-12-11T07:46:30.564Z,-0.50
2022-12-11T07:48:57.121Z,-0.60
2022-12-11T07:51:27.995Z,-0.60
2022-12-11T07:54:01.769Z,-0.60
2022-12-11T07:56:28.973Z,-0.60
2022-12-11T07:58:55.550Z,-0.60
2022-12-11T08:01:23.645Z,-0.60
2022-12-11T08:03:50.703Z,-0.60
2022-12-11T08:06:17.484Z,-0.60
2022-12-11T08:08:44.351Z,-0.60
2022-12-11T08:11:12.671Z,-0.60
2022-12-11T08:13:39.770Z,-0.60
2022-12-11T08:16:07.173Z,-0.50
2022-12-11T08:18:34.649Z,-0.50
2022-12-11T08:21:40.069Z,-0.40
2022-12-11T08:24:06.764Z,-0.40
2022-12-11T08:26:33.349Z,-0.40
2022-12-11T08:29:00.909Z,-0.40
2022-12-11T08:31:27.774Z,-0.40
2022-12-11T08:33:55.362Z,-0.40
2022-12-11T08:36:22.889Z,-0.40
2022-12-11T08:38:49.851Z,-0.30
2022-12-11T08:41:17.991Z,-0.30
2022-12-11T08:43:44.731Z,-0.30
2022-12-11T08:46:11.372Z,-0.30
2022-12-11T08:48:38.600Z,-0.20
2022-12-11T08:51:06.520Z,-0.30
2022-12-11T08:53:33.349Z,-0.30
2022-12-11T08:56:03.853Z,-0.30
2022-12-11T08:58:30.549Z,-0.30
2022-12-11T09:00:57.161Z,-0.30
2022-12-11T09:03:23.890Z,-0.30
2022-12-11T09:05:50.648Z,-0.30
2022-12-11T09:08:17.336Z,-0.30
2022-12-11T09:10:43.956Z,-0.30
2022-12-11T09:13:10.478Z,-0.30
2022-12-11T09:15:40.420Z,-0.20
2022-12-11T09:18:07.371Z,-0.20
2022-12-11T09:20:33.937Z,-0.10
2022-12-11T09:23:01.029Z,-0.10
2022-12-11T09:25:27.475Z,-0.10
2022-12-11T09:27:53.972Z,-0.10
2022-12-11T09:30:20.585Z,-0.20
2022-12-11T09:32:47.010Z,-0.20
2022-12-11T09:35:13.731Z,-0.10
2022-12-11T09:37:40.409Z,-0.10
2022-12-11T09:40:07.941Z,-0.10
2022-12-11T09:42:50.723Z,0.00
2022-12-11T09:45:17.747Z,0.00
2022-12-11T09:47:45.958Z,0.00
2022-12-11T09:50:15.208Z,-0.10
2022-12-11T09:53:00.656Z,-0.10
2022-12-11T09:55:32.265Z,-0.10
2022-12-11T09:58:06.325Z,-0.10
2022-12-11T10:00:35.977Z,0.00
2022-12-11T10:03:11.790Z,0.00
2022-12-11T10:05:47.564Z,0.00
2022-12-11T10:08:20.660Z,0.00
2022-12-11T10:10:54.576Z,0.10
2022-12-11T10:13:50.479Z,0.00
2022-12-11T10:16:28.917Z,0.00
2022-12-11T10:18:55.625Z,0.10
2022-12-11T10:21:22.392Z,0.10
2022-12-11T10:24:03.512Z,0.20
2022-12-11T10:26:31.789Z,0.20
2022-12-11T10:29:02.370Z,0.20
2022-12-11T10:31:32.006Z,0.30
2022-12-11T10:34:03.503Z,0.20
2022-12-11T10:36:35.234Z,0.20
2022-12-11T10:39:02.731Z,0.30
2022-12-11T10:41:35.314Z,0.30
2022-12-11T10:44:13.596Z,0.30
2022-12-11T10:46:40.210Z,0.30
2022-12-11T10:49:19.793Z,0.30
2022-12-11T10:51:46.353Z,0.30
2022-12-11T10:54:33.587Z,0.30
2022-12-11T10:57:01.416Z,0.40
2022-12-11T10:59:32.599Z,0.40
2022-12-11T11:01:59.383Z,0.30
2022-12-11T11:04:38.754Z,0.40
2022-12-11T11:07:13.341Z,0.30
2022-12-11T11:09:40.398Z,0.40
2022-12-11T11:12:17.274Z,0.40
2022-12-11T11:14:43.833Z,0.50
2022-12-11T11:17:13.914Z,0.40
2022-12-11T11:19:40.503Z,0.40
2022-12-11T11:22:08.445Z,0.50
2022-12-11T11:24:36.877Z,0.50
2022-12-11T11:27:13.711Z,0.50
2022-12-11T11:29:41.226Z,0.60
2022-12-11T11:32:25.843Z,0.60
2022-12-11T11:34:52.339Z,0.60
2022-12-11T11:37:30.102Z,0.60
2022-12-11T11:39:59.048Z,0.60
2022-12-11T11:42:38.218Z,0.70
2022-12-11T11:45:05.107Z,0.70
2022-12-11T11:47:34.763Z,0.70
2022-12-11T11:50:05.940Z,0.70
2022-12-11T11:52:33.308Z,0.60
2022-12-11T11:55:10.104Z,0.60
2022-12-11T11:57:57.227Z,0.70
2022-12-11T12:00:30.358Z,0.70
2022-12-11T12:03:06.028Z,0.70
2022-12-11T12:05:42.593Z,0.70
2022-12-11T12:08:09.188Z,0.60
2022-12-11T12:10:58.922Z,0.60
2022-12-11T12:16:52.161Z,0.60
2022-12-11T12:19:26.479Z,0.70
2022-12-11T12:21:53.244Z,0.80
2022-12-11T12:24:28.748Z,0.80
2022-12-11T12:27:51.037Z,0.80
2022-12-11T12:30:11.551Z,0.90
2022-12-11T12:32:41.811Z,1.00
2022-12-11T12:35:27.356Z,1.00
2022-12-11T12:37:58.536Z,0.80
2022-12-11T12:40:43.640Z,0.80
2022-12-11T12:43:14.349Z,0.80
2022-12-11T12:45:59.927Z,0.80
2022-12-11T12:48:27.203Z,0.80
2022-12-11T12:50:54.146Z,0.90
2022-12-11T12:53:23.627Z,0.90
2022-12-11T12:55:51.711Z,0.80
2022-12-11T12:58:25.417Z,0.90
2022-12-11T13:00:52.261Z,0.90
2022-12-11T13:03:20.745Z,0.90
2022-12-11T13:06:01.390Z,0.90
2022-12-11T13:08:30.339Z,0.90
2022-12-11T13:11:23.113Z,1.00
2022-12-11T13:14:02.628Z,1.00
2022-12-11T13:16:39.697Z,1.10
2022-12-11T13:19:27.432Z,1.10
2022-12-11T13:22:03.293Z,1.10
2022-12-11T13:24:33.413Z,1.10
2022-12-11T13:27:10.395Z,1.10
2022-12-11T13:29:41.438Z,1.10
2022-12-11T13:32:07.971Z,1.10
2022-12-11T13:34:38.947Z,1.10
2022-12-11T13:37:06.164Z,1.10
2022-12-11T13:39:35.001Z,0.90
2022-12-11T13:42:02.773Z,0.90
2022-12-11T13:44:30.860Z,1.00
2022-12-11T13:46:59.686Z,1.00
2022-12-11T13:49:31.100Z,1.00
2022-12-11T13:51:59.098Z,1.00
2022-12-11T13:54:26.524Z,1.00
2022-12-11T13:57:00.592Z,1.00
2022-12-11T13:59:34.213Z,0.90
2022-12-11T14:02:06.078Z,0.80
2022-12-11T14:04:34.091Z,0.80
2022-12-11T14:07:01.138Z,0.90
2022-12-11T14:09:28.172Z,0.90
2022-12-11T14:11:57.250Z,1.00
2022-12-11T14:14:27.289Z,1.00
2022-12-11T14:16:54.311Z,1.00
2022-12-11T14:19:22.147Z,0.90
2022-12-11T14:21:55.199Z,1.00
2022-12-11T14:24:21.637Z,1.00
2022-12-11T14:26:52.099Z,1.00
2022-12-11T14:29:26.171Z,1.00
2022-12-11T14:31:53.387Z,1.00
2022-12-11T14:34:25.311Z,1.00
2022-12-11T14:36:52.195Z,0.90
2022-12-11T14:39:21.762Z,0.90
2022-12-11T14:41:48.223Z,0.80
2022-12-11T14:44:16.760Z,0.90
2022-12-11T14:46:43.207Z,0.90
2022-12-11T14:49:33.118Z,0.90
2022-12-11T14:51:59.903Z,0.90
2022-12-11T14:54:31.492Z,0.90
2022-12-11T14:56:58.804Z,0.90
2022-12-11T14:59:31.647Z,0.70
2022-12-11T15:02:03.365Z,0.70
2022-12-11T15:04:31.716Z,0.60
2022-12-11T15:06:58.648Z,0.60
2022-12-11T15:09:29.876Z,0.60
2022-12-11T15:11:58.615Z,0.70
2022-12-11T15:14:25.540Z,0.70
2022-12-11T15:16:53.087Z,0.70
2022-12-11T15:19:21.950Z,0.80
2022-12-11T15:21:48.784Z,0.70
2022-12-11T15:24:22.643Z,0.70
2022-12-11T15:26:49.333Z,0.80
2022-12-11T15:29:27.357Z,0.80
2022-12-11T15:32:04.544Z,0.80
2022-12-11T15:34:43.108Z,0.80
2022-12-11T15:37:24.790Z,0.80
2022-12-11T15:39:52.046Z,0.70
2022-12-11T15:42:23.093Z,0.60
2022-12-11T15:44:49.876Z,0.60
2022-12-11T15:47:27.399Z,0.60
2022-12-11T15:49:55.745Z,0.60
2022-12-11T15:52:22.352Z,0.60
2022-12-11T15:54:48.862Z,0.60
2022-12-11T15:57:17.212Z,0.70
2022-12-11T15:59:44.253Z,0.70
2022-12-11T16:02:12.104Z,0.70
2022-12-11T16:04:39.469Z,0.70
2022-12-11T16:07:12.456Z,0.70
2022-12-11T16:09:38.939Z,0.80
2022-12-11T16:12:05.543Z,0.80
2022-12-11T16:14:31.972Z,0.70
2022-12-11T16:16:58.432Z,0.80
2022-12-11T16:19:24.923Z,0.70
2022-12-11T16:21:52.014Z,0.70
2022-12-11T16:24:18.696Z,0.70
2022-12-11T16:26:45.199Z,0.70
2022-12-11T16:29:11.736Z,0.70
2022-12-11T16:31:38.509Z,0.70
2022-12-11T16:34:05.069Z,0.70
2022-12-11T16:36:31.706Z,0.60
2022-12-11T16:38:58.232Z,0.70
2022-12-11T16:41:24.836Z,0.80
2022-12-11T16:43:51.431Z,0.70
2022-12-11T16:46:18.832Z,0.70
2022-12-11T16:48:45.448Z,0.60
2022-12-11T16:51:11.961Z,0.60
2022-12-11T16:53:38.589Z,0.50
2022-12-11T16:56:05.640Z,0.50
2022-12-11T16:58:32.155Z,0.60
2022-12-11T17:01:02.203Z,0.60
2022-12-11T17:03:30.017Z,0.50
2022-12-11T17:05:56.967Z,0.50
2022-12-11T17:08:24.283Z,0.60
2022-12-11T17:10:51.644Z,0.60
2022-12-11T17:13:18.492Z,0.60
2022-12-11T17:15:45.396Z,0.60
2022-12-11T17:18:12.100Z,0.70
2022-12-11T17:20:42.237Z,0.70
2022-12-11T17:23:10.477Z,0.70
2022-12-11T17:25:43.757Z,0.70
2022-12-11T17:28:11.004Z,0.70
2022-12-11T17:30:41.254Z,0.70
2022-12-11T17:33:08.572Z,0.70
2022-12-11T17:35:35.241Z,0.70
2022-12-11T17:38:01.857Z,0.70
2022-12-11T17:40:28.458Z,0.70
2022-12-11T17:42:54.989Z,0.70
2022-12-11T17:45:21.912Z,0.80
2022-12-11T17:47:48.404Z,0.70
2022-12-11T17:50:14.943Z,0.70
2022-12-11T17:52:44.302Z,0.70
2022-12-11T17:55:11.549Z,0.70
2022-12-11T17:57:38.435Z,0.70
2022-12-11T18:00:05.268Z,0.60
2022-12-11T18:02:31.907Z,0.60
2022-12-11T18:04:58.446Z,0.60
2022-12-11T18:07:25.178Z,0.60
2022-12-11T18:09:51.728Z,0.60
2022-12-11T18:12:18.278Z,0.60
2022-12-11T18:14:44.792Z,0.60
2022-12-11T18:17:11.335Z,0.70
2022-12-11T18:19:41.461Z,0.60
2022-12-11T18:22:12.284Z,0.60
2022-12-11T18:24:38.839Z,0.60
2022-12-11T18:27:07.326Z,0.50
2022-12-11T18:29:33.892Z,0.60
2022-12-11T18:32:00.506Z,0.60
2022-12-11T18:34:27.028Z,0.60
2022-12-11T18:36:53.575Z,0.60
2022-12-11T18:39:20.176Z,0.60
2022-12-11T18:41:58.406Z,0.50
2022-12-11T18:44:33.486Z,0.50
2022-12-11T18:46:59.966Z,0.50
2022-12-11T18:49:26.523Z,0.50
2022-12-11T18:51:53.055Z,0.50
2022-12-11T18:54:19.767Z,0.60
2022-12-11T18:56:46.248Z,0.50
2022-12-11T18:59:15.708Z,0.50
2022-12-11T19:01:42.351Z,0.50
2022-12-11T19:04:10.932Z,0.50
2022-12-11T19:06:37.859Z,0.50
2022-12-11T19:09:05.591Z,0.50
2022-12-11T19:11:32.874Z,0.50
2022-12-11T19:13:59.466Z,0.50
2022-12-11T19:16:29.692Z,0.50
2022-12-11T19:18:59.668Z,0.50
2022-12-11T19:21:26.326Z,0.40
2022-12-11T19:23:52.815Z,0.40
2022-12-11T19:26:21.435Z,0.30
2022-12-11T19:28:48.792Z,0.30
2022-12-11T19:31:17.054Z,0.40
2022-12-11T19:33:44.279Z,0.40
2022-12-11T19:36:11.410Z,0.40
2022-12-11T19:38:39.404Z,0.50
2022-12-11T19:41:06.884Z,0.50
2022-12-11T19:43:34.168Z,0.50
2022-12-11T19:46:04.672Z,0.50
2022-12-11T19:48:31.264Z,0.50
2022-12-11T19:51:03.271Z,0.50
2022-12-11T19:53:30.124Z,0.50
2022-12-11T19:55:56.607Z,0.50
2022-12-11T19:58:23.177Z,0.40
2022-12-11T20:00:49.722Z,0.30
2022-12-11T20:03:16.356Z,0.30
2022-12-11T20:05:43.022Z,0.30
2022-12-11T20:08:42.523Z,0.30
2022-12-11T20:10:56.099Z,0.30
2022-12-11T20:13:22.783Z,0.30
2022-12-11T20:15:51.410Z,0.30
2022-12-11T20:18:18.885Z,0.40
2022-12-11T20:20:45.583Z,0.40
2022-12-11T20:23:12.158Z,0.30
2022-12-11T20:25:40.207Z,0.30
2022-12-11T20:28:06.828Z,0.30
2022-12-11T20:30:33.419Z,0.30
2022-12-11T20:32:59.976Z,0.20
2022-12-11T20:35:27.214Z,0.20
2022-12-11T20:37:53.747Z,0.30
2022-12-11T20:40:20.296Z,0.30
2022-12-11T20:42:46.841Z,0.30
2022-12-11T20:45:13.646Z,0.30
2022-12-11T20:47:40.311Z,0.40
2022-12-11T20:50:06.905Z,0.30
2022-12-11T20:52:34.123Z,0.40
2022-12-11T20:55:00.677Z,0.40
2022-12-11T20:57:27.191Z,0.40
2022-12-11T20:59:53.751Z,0.30
2022-12-11T21:02:20.328Z,0.30
2022-12-11T21:04:47.032Z,0.30
2022-12-11T21:07:13.646Z,0.30
2022-12-11T21:09:40.318Z,0.30
2022-12-11T21:12:07.011Z,0.30
2022-12-11T21:14:33.886Z,0.20
2022-12-11T21:17:00.625Z,0.20
2022-12-11T21:19:27.295Z,0.20
2022-12-11T21:21:54.078Z,0.20
2022-12-11T21:24:27.360Z,0.20
2022-12-11T21:26:57.933Z,0.30
2022-12-11T21:29:25.589Z,0.20
2022-12-11T21:31:52.668Z,0.20
2022-12-11T21:34:25.074Z,0.10
2022-12-11T21:36:56.394Z,0.10
2022-12-11T21:39:26.409Z,0.10
2022-12-11T21:41:52.973Z,0.10
2022-12-11T21:47:06.007Z,0.00
2022-12-11T21:49:32.544Z,0.00
2022-12-11T21:51:58.979Z,-0.10
2022-12-11T21:54:25.489Z,-0.20
2022-12-11T21:56:52.031Z,-0.20
2022-12-11T21:59:18.479Z,-0.20
2022-12-11T22:01:46.028Z,-0.10
2022-12-11T22:04:13.517Z,0.00
2022-12-11T22:06:41.977Z,0.00
2022-12-11T22:09:08.912Z,-0.20
2022-12-11T22:11:35.594Z,-0.20
2022-12-11T22:14:02.765Z,-0.20
2022-12-11T22:16:29.358Z,-0.20
2022-12-11T22:18:55.913Z,-0.30
2022-12-11T22:21:22.527Z,-0.30
2022-12-11T22:23:49.343Z,-0.30
2022-12-11T22:26:17.736Z,-0.30
2022-12-11T22:28:44.237Z,-0.20
2022-12-11T22:31:12.118Z,-0.30
2022-12-11T22:33:38.875Z,-0.20
2022-12-11T22:36:05.427Z,-0.30
2022-12-11T22:38:32.261Z,-0.30
2022-12-11T22:40:58.824Z,-0.30
2022-12-11T22:43:25.360Z,-0.30
2022-12-11T22:45:51.968Z,-0.10
2022-12-11T22:48:18.547Z,-0.20
2022-12-11T22:50:44.983Z,-0.20
2022-12-11T22:53:11.603Z,-0.20
2022-12-11T22:55:38.760Z,-0.30
2022-12-11T22:58:05.499Z,-0.30
2022-12-11T23:00:32.038Z,-0.30
2022-12-11T23:02:58.534Z,-0.20
2022-12-11T23:05:25.069Z,-0.30
2022-12-11T23:07:51.610Z,-0.30
2022-12-11T23:10:18.172Z,-0.30
2022-12-11T23:12:44.693Z,-0.30
2022-12-11T23:15:11.508Z,-0.40
2022-12-11T23:17:38.163Z,-0.30
2022-12-11T23:20:05.694Z,-0.30
2022-12-11T23:22:32.619Z,-0.30
2022-12-11T23:24:59.132Z,-0.30
2022-12-11T23:27:25.757Z,-0.30
2022-12-11T23:29:52.247Z,-0.30
2022-12-11T23:32:18.717Z,-0.40
2022-12-11T23:34:45.260Z,-0.30
2022-12-11T23:37:11.993Z,-0.30
2022-12-11T23:39:38.465Z,-0.30
2022-12-11T23:42:04.975Z,-0.30
2022-12-11T23:44:31.442Z,-0.30
2022-12-11T23:46:57.908Z,-0.30
2022-12-11T23:49:24.371Z,-0.30
2022-12-11T23:51:50.868Z,-0.30
2022-12-11T23:54:17.327Z,-0.30
2022-12-11T23:56:43.766Z,-0.30
2022-12-11T23:59:13.578Z,-0.20
